Weather at Abu Musa Island Airport

Public forecast

Using degrees Celsius for public forecast. Weather courtesy of forecast.io.

Current aviation weather report (METAR) for Abu Musa Island Airport

Retrieved 2022/07/03 05:00 UTC (56 minutes ago):

OIBA 030500Z 21004KT 3000 BR NSC 33/30 Q0993

Closest aviation forecast (TAF) to Abu Musa Island Airport

Forecast is more than 12 hours old.

Closest forecast is Siri Airport, 26.7 nm (49.5 km) W. Retrieved 2010/02/03 19:00 UTC (12 years ago):

TAF OIBK OIBV OIBS 031900Z 0321/0412 03007MPS 6000 FEW025CB SCT040 SCT100 TEMPO 0403/0409 15007G13MPS 3000 SA BECMG 0409/0411 3000 RA FEW035CB SCT040 BKN100